Zeynalabdin Tagiyev — 9HLD8 — position and weather

sailwx.info

Track history (hours):
 
Tides and Currents Weather Stations Pressure Air Temp Water Temp Dewpoint Dewpoint Depression Visibility Wind Speed Wind Dir Waves Ship Positions

Zeynalabdin Tagiyev

Last reported at 2016-Dec-04 00:23 UTC. Time now 2016-Dec-06 12:06 UTC.
Position N 37°52' E 015°53'.

Length 140 m; draft 4.9 m.

Type: Cargo ship. MMSI: 256107000.

Date/timePositionNaut miles runAvg speedWind from/ knotsBaromVisibWave heightAir tempDewpointWater temp
2016-Dec-04 00:23N 37°52' E 015°53'7 8.9
2016-Dec-03 23:33N 37°52' E 015°44'8 8.2
2016-Dec-03 22:32N 37°55' E 015°34'8 8.6
2016-Dec-03 21:33N 38°03' E 015°33'9 8.5
2016-Dec-03 20:33N 38°12' E 015°35'6 6.4
2016-Dec-03 19:33N 38°17' E 015°40'9 9.0
2016-Dec-03 18:33N 38°20' E 015°29'9 9.0
2016-Dec-03 17:33N 38°18' E 015°18'9 9.4
2016-Dec-03 16:34N 38°17' E 015°06'10 9.5
2016-Dec-03 15:33N 38°14' E 014°55'54 9.1
2016-Dec-03 09:33N 38°10' E 013°45'9 8.9
2016-Dec-03 08:34N 38°13' E 013°35'9 8.7
2016-Dec-03 07:33N 38°16' E 013°24'9 9.1
2016-Dec-03 06:34N 38°17' E 013°13'9 8.8
2016-Dec-03 05:31N 38°18' E 013°01'  
Track history (hours):
 
Tides and Currents Weather Stations Pressure Air Temp Water Temp Dewpoint Dewpoint Depression Visibility Wind Speed Wind Dir Waves Ship Positions

Zeynalabdin Tagiyev

Last reported at 2016-Dec-04 00:23 UTC. Time now 2016-Dec-06 12:06 UTC.
Position N 37°52' E 015°53'.

Length 140 m; draft 4.9 m.

Type: Cargo ship. MMSI: 256107000.

Date/timePositionNaut miles runAvg speedWind from/ knotsBaromVisibWave heightAir tempDewpointWater temp
2016-Dec-04 00:23N 37°52' E 015°53'7 8.9
2016-Dec-03 23:33N 37°52' E 015°44'8 8.2
2016-Dec-03 22:32N 37°55' E 015°34'8 8.6
2016-Dec-03 21:33N 38°03' E 015°33'9 8.5
2016-Dec-03 20:33N 38°12' E 015°35'6 6.4
2016-Dec-03 19:33N 38°17' E 015°40'9 9.0
2016-Dec-03 18:33N 38°20' E 015°29'9 9.0
2016-Dec-03 17:33N 38°18' E 015°18'9 9.4
2016-Dec-03 16:34N 38°17' E 015°06'10 9.5
2016-Dec-03 15:33N 38°14' E 014°55'54 9.1
2016-Dec-03 09:33N 38°10' E 013°45'9 8.9
2016-Dec-03 08:34N 38°13' E 013°35'9 8.7
2016-Dec-03 07:33N 38°16' E 013°24'9 9.1
2016-Dec-03 06:34N 38°17' E 013°13'9 8.8
2016-Dec-03 05:31N 38°18' E 013°01'  

Dump ship's entire track history